sensor_id;sensor_type;location;lat;lon;timestamp;pressure;altitude;pressure_sealevel;temperature;humidity
41945;BME280;63122;52.424;13.458;2024-01-16T01:06:58;99470.56;;;-1.12;100.00
41945;BME280;63122;52.424;13.458;2024-01-16T01:09:53;99471.19;;;-1.09;100.00
41945;BME280;63122;52.424;13.458;2024-01-16T01:13:04;99479.47;;;-1.04;100.00
41945;BME280;63122;52.424;13.458;2024-01-16T01:24:22;99499.97;;;-1.00;100.00
41945;BME280;63122;52.424;13.458;2024-01-16T01:43:45;99524.50;;;-1.32;100.00
41945;BME280;63122;52.424;13.458;2024-01-16T01:46:35;99525.44;;;-1.33;100.00
41945;BME280;63122;52.424;13.458;2024-01-16T01:52:53;99523.69;;;-1.46;100.00
41945;BME280;63122;52.424;13.458;2024-01-16T04:12:33;99723.13;;;-2.20;100.00
41945;BME280;63122;52.424;13.458;2024-01-16T04:20:08;99724.94;;;-2.36;100.00
41945;BME280;63122;52.424;13.458;2024-01-16T04:21:14;99740.38;;;-2.35;100.00
41945;BME280;63122;52.424;13.458;2024-01-16T04:24:35;99741.09;;;-2.18;100.00
41945;BME280;63122;52.424;13.458;2024-01-16T04:30:32;99742.38;;;-2.25;100.00
41945;BME280;63122;52.424;13.458;2024-01-16T04:33:48;99730.94;;;-2.21;100.00
41945;BME280;63122;52.424;13.458;2024-01-16T04:40:46;99739.69;;;-2.24;100.00
41945;BME280;63122;52.424;13.458;2024-01-16T04:43:32;99743.50;;;-2.29;100.00
41945;BME280;63122;52.424;13.458;2024-01-16T04:47:49;99749.47;;;-2.29;100.00
41945;BME280;63122;52.424;13.458;2024-01-16T04:51:14;99742.38;;;-2.25;100.00
41945;BME280;63122;52.424;13.458;2024-01-16T05:18:23;99773.94;;;-2.35;100.00
41945;BME280;63122;52.424;13.458;2024-01-16T05:21:06;99778.38;;;-2.37;100.00
41945;BME280;63122;52.424;13.458;2024-01-16T05:23:23;99772.56;;;-2.40;100.00
41945;BME280;63122;52.424;13.458;2024-01-16T05:25:37;99769.72;;;-2.36;100.00
41945;BME280;63122;52.424;13.458;2024-01-16T06:53:47;99883.56;;;-3.01;100.00
41945;BME280;63122;52.424;13.458;2024-01-16T06:56:16;99879.53;;;-2.91;100.00
41945;BME280;63122;52.424;13.458;2024-01-16T07:02:48;99902.25;;;-2.82;100.00
41945;BME280;63122;52.424;13.458;2024-01-16T07:22:50;99924.59;;;-2.49;100.00
41945;BME280;63122;52.424;13.458;2024-01-16T07:26:03;99940.91;;;-2.48;100.00
41945;BME280;63122;52.424;13.458;2024-01-16T07:42:33;99949.63;;;-2.04;100.00
41945;BME280;63122;52.424;13.458;2024-01-16T07:44:39;99937.31;;;-2.15;100.00
41945;BME280;63122;52.424;13.458;2024-01-16T07:46:46;99947.03;;;-2.19;100.00
41945;BME280;63122;52.424;13.458;2024-01-16T07:48:46;99944.44;;;-2.19;100.00
41945;BME280;63122;52.424;13.458;2024-01-16T07:50:42;99948.59;;;-2.16;100.00
41945;BME280;63122;52.424;13.458;2024-01-16T07:52:40;99948.13;;;-2.23;100.00
41945;BME280;63122;52.424;13.458;2024-01-16T07:54:35;99947.28;;;-2.23;100.00
41945;BME280;63122;52.424;13.458;2024-01-16T07:56:48;99955.09;;;-2.25;100.00
41945;BME280;63122;52.424;13.458;2024-01-16T07:58:49;99963.63;;;-2.39;100.00
41945;BME280;63122;52.424;13.458;2024-01-16T08:01:55;99962.56;;;-2.35;100.00
41945;BME280;63122;52.424;13.458;2024-01-16T08:09:03;99969.38;;;-2.34;100.00
41945;BME280;63122;52.424;13.458;2024-01-16T08:11:28;99977.97;;;-2.33;100.00
41945;BME280;63122;52.424;13.458;2024-01-16T08:13:38;99980.56;;;-2.49;100.00
41945;BME280;63122;52.424;13.458;2024-01-16T08:15:50;99967.66;;;-2.49;100.00
41945;BME280;63122;52.424;13.458;2024-01-16T08:18:21;99968.38;;;-2.47;100.00
41945;BME280;63122;52.424;13.458;2024-01-16T08:20:48;99975.16;;;-2.44;100.00
41945;BME280;63122;52.424;13.458;2024-01-16T08:23:02;99978.81;;;-2.49;100.00
41945;BME280;63122;52.424;13.458;2024-01-16T08:25:00;99974.97;;;-2.41;100.00
41945;BME280;63122;52.424;13.458;2024-01-16T08:26:53;99983.31;;;-2.36;100.00
41945;BME280;63122;52.424;13.458;2024-01-16T08:28:50;99987.47;;;-2.34;100.00
41945;BME280;63122;52.424;13.458;2024-01-16T08:30:43;99992.38;;;-2.29;100.00
41945;BME280;63122;52.424;13.458;2024-01-16T08:32:38;99981.22;;;-2.29;100.00
41945;BME280;63122;52.424;13.458;2024-01-16T08:34:31;99985.63;;;-2.32;100.00
41945;BME280;63122;52.424;13.458;2024-01-16T08:36:27;99981.28;;;-2.31;100.00
41945;BME280;63122;52.424;13.458;2024-01-16T08:38:22;99984.63;;;-2.29;100.00
41945;BME280;63122;52.424;13.458;2024-01-16T08:40:18;99988.88;;;-2.28;100.00
41945;BME280;63122;52.424;13.458;2024-01-16T08:42:13;99993.13;;;-2.27;100.00
41945;BME280;63122;52.424;13.458;2024-01-16T08:44:10;99994.63;;;-2.23;100.00
41945;BME280;63122;52.424;13.458;2024-01-16T08:46:05;99998.03;;;-2.22;100.00
41945;BME280;63122;52.424;13.458;2024-01-16T08:47:59;100006.78;;;-2.25;100.00
41945;BME280;63122;52.424;13.458;2024-01-16T08:49:54;99999.13;;;-2.26;100.00
41945;BME280;63122;52.424;13.458;2024-01-16T08:51:50;100013.16;;;-2.30;100.00
41945;BME280;63122;52.424;13.458;2024-01-16T08:53:45;100014.81;;;-2.29;100.00
41945;BME280;63122;52.424;13.458;2024-01-16T08:55:43;100008.16;;;-2.34;100.00
41945;BME280;63122;52.424;13.458;2024-01-16T08:57:38;100000.28;;;-2.32;100.00
41945;BME280;63122;52.424;13.458;2024-01-16T08:59:34;99994.13;;;-2.29;100.00
41945;BME280;63122;52.424;13.458;2024-01-16T09:01:29;100003.44;;;-2.27;100.00
41945;BME280;63122;52.424;13.458;2024-01-16T09:03:24;99998.22;;;-2.25;100.00
41945;BME280;63122;52.424;13.458;2024-01-16T09:05:17;99999.81;;;-2.23;100.00
41945;BME280;63122;52.424;13.458;2024-01-16T09:07:18;100006.72;;;-2.23;100.00
41945;BME280;63122;52.424;13.458;2024-01-16T09:09:13;100001.53;;;-2.23;100.00
41945;BME280;63122;52.424;13.458;2024-01-16T09:11:11;100008.19;;;-2.19;100.00
41945;BME280;63122;52.424;13.458;2024-01-16T09:13:06;100011.53;;;-2.17;100.00
41945;BME280;63122;52.424;13.458;2024-01-16T09:15:02;100004.53;;;-2.15;100.00
41945;BME280;63122;52.424;13.458;2024-01-16T09:16:57;100012.28;;;-2.15;100.00
41945;BME280;63122;52.424;13.458;2024-01-16T09:18:53;100011.34;;;-2.14;100.00
41945;BME280;63122;52.424;13.458;2024-01-16T09:20:48;100014.69;;;-2.12;100.00
41945;BME280;63122;52.424;13.458;2024-01-16T09:22:43;100017.19;;;-2.10;100.00
41945;BME280;63122;52.424;13.458;2024-01-16T09:24:39;100014.63;;;-2.10;100.00
41945;BME280;63122;52.424;13.458;2024-01-16T09:26:34;100019.78;;;-2.10;100.00
41945;BME280;63122;52.424;13.458;2024-01-16T09:28:29;100017.38;;;-2.13;100.00
41945;BME280;63122;52.424;13.458;2024-01-16T09:30:25;100018.88;;;-2.09;100.00
41945;BME280;63122;52.424;13.458;2024-01-16T09:32:20;100019.78;;;-2.10;100.00
41945;BME280;63122;52.424;13.458;2024-01-16T09:34:17;100021.44;;;-2.09;100.00
41945;BME280;63122;52.424;13.458;2024-01-16T09:36:10;100025.78;;;-2.10;100.00
41945;BME280;63122;52.424;13.458;2024-01-16T09:38:05;100027.47;;;-2.09;100.00
41945;BME280;63122;52.424;13.458;2024-01-16T09:40:01;100023.19;;;-2.10;100.00
41945;BME280;63122;52.424;13.458;2024-01-16T09:41:58;100017.94;;;-2.08;100.00
41945;BME280;63122;52.424;13.458;2024-01-16T09:43:54;100019.59;;;-2.07;100.00
41945;BME280;63122;52.424;13.458;2024-01-16T09:45:51;100022.94;;;-2.05;100.00
41945;BME280;63122;52.424;13.458;2024-01-16T09:47:50;100024.44;;;-2.01;100.00
41945;BME280;63122;52.424;13.458;2024-01-16T09:49:46;100026.03;;;-1.98;100.00
41945;BME280;63122;52.424;13.458;2024-01-16T09:51:39;100024.19;;;-1.96;100.00
41945;BME280;63122;52.424;13.458;2024-01-16T09:53:35;100029.91;;;-1.91;100.00
41945;BME280;63122;52.424;13.458;2024-01-16T09:55:28;100031.69;;;-1.92;100.00
41945;BME280;63122;52.424;13.458;2024-01-16T09:57:26;100030.47;;;-1.86;100.00
41945;BME280;63122;52.424;13.458;2024-01-16T09:59:20;100033.16;;;-1.88;100.00
41945;BME280;63122;52.424;13.458;2024-01-16T10:01:16;100041.50;;;-1.82;100.00
41945;BME280;63122;52.424;13.458;2024-01-16T10:03:10;100036.16;;;-1.79;100.00
41945;BME280;63122;52.424;13.458;2024-01-16T10:05:07;100035.03;;;-1.75;100.00
41945;BME280;63122;52.424;13.458;2024-01-16T10:07:01;100035.72;;;-1.71;100.00
41945;BME280;63122;52.424;13.458;2024-01-16T10:08:57;100035.53;;;-1.68;100.00
41945;BME280;63122;52.424;13.458;2024-01-16T10:10:52;100033.63;;;-1.65;100.00
41945;BME280;63122;52.424;13.458;2024-01-16T10:12:51;100034.34;;;-1.63;100.00
41945;BME280;63122;52.424;13.458;2024-01-16T10:14:48;100035.00;;;-1.59;100.00
41945;BME280;63122;52.424;13.458;2024-01-16T10:16:57;100037.31;;;-1.54;100.00
41945;BME280;63122;52.424;13.458;2024-01-16T10:19:03;100037.16;;;-1.51;100.00
41945;BME280;63122;52.424;13.458;2024-01-16T10:20:59;100046.38;;;-1.47;100.00
41945;BME280;63122;52.424;13.458;2024-01-16T10:22:55;100041.88;;;-1.43;100.00
41945;BME280;63122;52.424;13.458;2024-01-16T10:24:48;100032.09;;;-1.38;100.00
41945;BME280;63122;52.424;13.458;2024-01-16T10:26:43;100049.94;;;-1.34;100.00
41945;BME280;63122;52.424;13.458;2024-01-16T10:28:40;100035.41;;;-1.36;100.00
41945;BME280;63122;52.424;13.458;2024-01-16T10:30:35;100039.22;;;-1.27;100.00
41945;BME280;63122;52.424;13.458;2024-01-16T10:32:34;100033.69;;;-1.21;100.00
41945;BME280;63122;52.424;13.458;2024-01-16T10:34:31;100038.41;;;-1.13;100.00
41945;BME280;63122;52.424;13.458;2024-01-16T10:36:26;100042.00;;;-1.16;100.00
41945;BME280;63122;52.424;13.458;2024-01-16T10:38:22;100041.19;;;-1.17;100.00
41945;BME280;63122;52.424;13.458;2024-01-16T10:40:16;100049.69;;;-1.14;100.00
41945;BME280;63122;52.424;13.458;2024-01-16T10:42:15;100042.41;;;-1.08;100.00
41945;BME280;63122;52.424;13.458;2024-01-16T10:44:11;100048.13;;;-1.03;100.00
41945;BME280;63122;52.424;13.458;2024-01-16T10:46:11;100048.66;;;-0.97;100.00
41945;BME280;63122;52.424;13.458;2024-01-16T10:48:05;100042.38;;;-0.93;100.00
41945;BME280;63122;52.424;13.458;2024-01-16T10:50:02;100039.78;;;-0.93;100.00
41945;BME280;63122;52.424;13.458;2024-01-16T10:51:58;100045.72;;;-0.91;100.00
41945;BME280;63122;52.424;13.458;2024-01-16T10:53:57;100044.03;;;-0.92;100.00
41945;BME280;63122;52.424;13.458;2024-01-16T10:55:51;100035.16;;;-0.88;100.00
41945;BME280;63122;52.424;13.458;2024-01-16T10:57:48;100031.75;;;-0.89;100.00
41945;BME280;63122;52.424;13.458;2024-01-16T10:59:53;100025.84;;;-0.91;100.00
41945;BME280;63122;52.424;13.458;2024-01-16T11:01:54;100024.91;;;-0.90;100.00
41945;BME280;63122;52.424;13.458;2024-01-16T11:03:51;100019.00;;;-0.92;100.00
41945;BME280;63122;52.424;13.458;2024-01-16T11:05:50;100028.69;;;-0.95;100.00
41945;BME280;63122;52.424;13.458;2024-01-16T11:07:46;100024.81;;;-1.03;100.00
41945;BME280;63122;52.424;13.458;2024-01-16T11:09:43;100023.03;;;-1.02;100.00
41945;BME280;63122;52.424;13.458;2024-01-16T11:11:37;100024.81;;;-1.03;100.00
41945;BME280;63122;52.424;13.458;2024-01-16T11:13:34;100033.59;;;-1.05;100.00
41945;BME280;63122;52.424;13.458;2024-01-16T11:15:31;100025.09;;;-1.07;100.00
41945;BME280;63122;52.424;13.458;2024-01-16T11:17:28;100029.25;;;-1.05;100.00
41945;BME280;63122;52.424;13.458;2024-01-16T11:19:27;100034.44;;;-1.05;100.00
41945;BME280;63122;52.424;13.458;2024-01-16T11:21:43;100027.50;;;-1.04;100.00
41945;BME280;63122;52.424;13.458;2024-01-16T11:23:40;100030.94;;;-1.04;100.00
41945;BME280;63122;52.424;13.458;2024-01-16T11:25:33;100027.41;;;-1.03;100.00
41945;BME280;63122;52.424;13.458;2024-01-16T11:27:28;100027.31;;;-1.01;100.00
41945;BME280;63122;52.424;13.458;2024-01-16T11:29:36;100022.13;;;-1.01;100.00
41945;BME280;63122;52.424;13.458;2024-01-16T11:31:35;100019.44;;;-0.99;100.00
41945;BME280;63122;52.424;13.458;2024-01-16T11:33:43;100023.69;;;-0.98;100.00
41945;BME280;63122;52.424;13.458;2024-01-16T11:35:40;100021.19;;;-1.00;100.00
41945;BME280;63122;52.424;13.458;2024-01-16T11:37:33;100029.81;;;-0.99;100.00
41945;BME280;63122;52.424;13.458;2024-01-16T11:39:30;100014.34;;;-1.01;100.00
41945;BME280;63122;52.424;13.458;2024-01-16T11:41:49;100023.78;;;-1.00;100.00
41945;BME280;63122;52.424;13.458;2024-01-16T11:43:44;100012.06;;;-1.06;100.00
41945;BME280;63122;52.424;13.458;2024-01-16T11:45:49;100007.44;;;-1.00;100.00
41945;BME280;63122;52.424;13.458;2024-01-16T11:47:45;100014.16;;;-0.98;100.00
41945;BME280;63122;52.424;13.458;2024-01-16T11:49:40;100015.19;;;-1.00;100.00
41945;BME280;63122;52.424;13.458;2024-01-16T11:51:41;100018.53;;;-0.98;100.00
41945;BME280;63122;52.424;13.458;2024-01-16T11:53:37;100015.00;;;-0.97;100.00
41945;BME280;63122;52.424;13.458;2024-01-16T11:55:32;100019.44;;;-0.99;100.00
41945;BME280;63122;52.424;13.458;2024-01-16T11:57:50;100015.09;;;-0.99;100.00
41945;BME280;63122;52.424;13.458;2024-01-16T12:00:01;100016.75;;;-0.98;100.00
41945;BME280;63122;52.424;13.458;2024-01-16T12:02:10;100011.69;;;-0.99;100.00
41945;BME280;63122;52.424;13.458;2024-01-16T12:04:08;100008.97;;;-0.98;100.00
41945;BME280;63122;52.424;13.458;2024-01-16T12:06:03;100007.97;;;-0.95;100.00
41945;BME280;63122;52.424;13.458;2024-01-16T12:08:01;100004.47;;;-0.94;100.00
41945;BME280;63122;52.424;13.458;2024-01-16T12:09:59;100013.06;;;-0.94;100.00
41945;BME280;63122;52.424;13.458;2024-01-16T12:11:56;100011.31;;;-0.93;100.00
41945;BME280;63122;52.424;13.458;2024-01-16T12:14:01;100011.22;;;-0.92;100.00
41945;BME280;63122;52.424;13.458;2024-01-16T12:15:59;100008.63;;;-0.92;100.00
41945;BME280;63122;52.424;13.458;2024-01-16T12:17:58;100003.06;;;-0.85;100.00
41945;BME280;63122;52.424;13.458;2024-01-16T12:19:57;100005.47;;;-0.82;100.00
41945;BME280;63122;52.424;13.458;2024-01-16T12:21:50;99998.34;;;-0.79;100.00
41945;BME280;63122;52.424;13.458;2024-01-16T12:23:46;99994.66;;;-0.75;100.00
41945;BME280;63122;52.424;13.458;2024-01-16T12:25:52;99993.19;;;-0.79;100.00
41945;BME280;63122;52.424;13.458;2024-01-16T12:27:57;99994.91;;;-0.79;100.00
41945;BME280;63122;52.424;13.458;2024-01-16T12:30:04;99987.88;;;-0.77;100.00
41945;BME280;63122;52.424;13.458;2024-01-16T12:32:05;99983.34;;;-0.74;100.00
41945;BME280;63122;52.424;13.458;2024-01-16T12:34:05;99979.00;;;-0.73;100.00
41945;BME280;63122;52.424;13.458;2024-01-16T12:36:04;99972.88;;;-0.72;100.00
41945;BME280;63122;52.424;13.458;2024-01-16T12:38:00;99978.91;;;-0.71;100.00
41945;BME280;63122;52.424;13.458;2024-01-16T12:39:53;99984.91;;;-0.71;100.00
41945;BME280;63122;52.424;13.458;2024-01-16T12:41:49;99968.75;;;-0.75;100.00
41945;BME280;63122;52.424;13.458;2024-01-16T12:43:49;99974.75;;;-0.74;100.00
41945;BME280;63122;52.424;13.458;2024-01-16T12:45:58;99967.69;;;-0.72;100.00
41945;BME280;63122;52.424;13.458;2024-01-16T12:47:54;99968.44;;;-0.70;100.00
41945;BME280;63122;52.424;13.458;2024-01-16T12:49:56;99962.63;;;-0.74;100.00
41945;BME280;63122;52.424;13.458;2024-01-16T12:52:14;99952.16;;;-0.72;100.00
41945;BME280;63122;52.424;13.458;2024-01-16T12:54:11;99954.47;;;-0.67;100.00
41945;BME280;63122;52.424;13.458;2024-01-16T12:56:07;99959.44;;;-0.64;100.00
41945;BME280;63122;52.424;13.458;2024-01-16T12:58:14;99964.63;;;-0.64;100.00
41945;BME280;63122;52.424;13.458;2024-01-16T13:00:22;99949.94;;;-0.64;100.00
41945;BME280;63122;52.424;13.458;2024-01-16T13:02:20;99955.19;;;-0.65;100.00
41945;BME280;63122;52.424;13.458;2024-01-16T13:04:17;99959.38;;;-0.63;100.00
41945;BME280;63122;52.424;13.458;2024-01-16T13:06:17;99959.38;;;-0.63;100.00
41945;BME280;63122;52.424;13.458;2024-01-16T13:08:22;99957.06;;;-0.67;100.00
41945;BME280;63122;52.424;13.458;2024-01-16T13:10:19;99960.38;;;-0.65;100.00
41945;BME280;63122;52.424;13.458;2024-01-16T13:12:19;99951.06;;;-0.68;100.00
41945;BME280;63122;52.424;13.458;2024-01-16T13:14:13;99956.53;;;-0.73;100.00
41945;BME280;63122;52.424;13.458;2024-01-16T13:16:08;99951.53;;;-0.76;100.00
41945;BME280;63122;52.424;13.458;2024-01-16T13:18:06;99954.31;;;-0.79;100.00
41945;BME280;63122;52.424;13.458;2024-01-16T13:19:59;99950.16;;;-0.81;100.00
41945;BME280;63122;52.424;13.458;2024-01-16T13:21:55;99952.53;;;-0.78;100.00
41945;BME280;63122;52.424;13.458;2024-01-16T13:23:54;99953.41;;;-0.78;100.00
41945;BME280;63122;52.424;13.458;2024-01-16T13:25:49;99946.44;;;-0.77;100.00
41945;BME280;63122;52.424;13.458;2024-01-16T13:27:45;99943.66;;;-0.74;100.00
41945;BME280;63122;52.424;13.458;2024-01-16T13:29:40;99949.47;;;-0.70;100.00
41945;BME280;63122;52.424;13.458;2024-01-16T13:31:37;99953.66;;;-0.68;100.00
41945;BME280;63122;52.424;13.458;2024-01-16T13:33:33;99956.88;;;-0.64;100.00
41945;BME280;63122;52.424;13.458;2024-01-16T13:35:29;99951.47;;;-0.61;100.00
41945;BME280;63122;52.424;13.458;2024-01-16T13:37:28;99956.47;;;-0.58;100.00
41945;BME280;63122;52.424;13.458;2024-01-16T13:39:35;99951.22;;;-0.56;100.00
41945;BME280;63122;52.424;13.458;2024-01-16T13:41:48;99950.34;;;-0.57;100.00
41945;BME280;63122;52.424;13.458;2024-01-16T13:43:44;99945.09;;;-0.55;100.00
41945;BME280;63122;52.424;13.458;2024-01-16T13:45:41;99955.53;;;-0.57;100.00
41945;BME280;63122;52.424;13.458;2024-01-16T13:47:36;99952.78;;;-0.54;100.00
41945;BME280;63122;52.424;13.458;2024-01-16T13:49:33;99971.00;;;-0.55;100.00
41945;BME280;63122;52.424;13.458;2024-01-16T13:51:29;99960.63;;;-0.55;100.00
41945;BME280;63122;52.424;13.458;2024-01-16T13:53:24;99951.00;;;-0.53;100.00
41945;BME280;63122;52.424;13.458;2024-01-16T13:55:22;99952.03;;;-0.56;100.00
41945;BME280;63122;52.424;13.458;2024-01-16T13:57:15;99952.88;;;-0.55;100.00
41945;BME280;63122;52.424;13.458;2024-01-16T13:59:11;99944.34;;;-0.57;100.00
41945;BME280;63122;52.424;13.458;2024-01-16T14:01:06;99947.03;;;-0.59;100.00
41945;BME280;63122;52.424;13.458;2024-01-16T14:03:02;99943.72;;;-0.61;100.00
41945;BME280;63122;52.424;13.458;2024-01-16T14:04:59;99944.84;;;-0.65;100.00
41945;BME280;63122;52.424;13.458;2024-01-16T14:06:52;99948.34;;;-0.66;100.00
41945;BME280;63122;52.424;13.458;2024-01-16T14:09:04;99949.22;;;-0.66;100.00
41945;BME280;63122;52.424;13.458;2024-01-16T14:11:04;99938.53;;;-0.61;100.00
41945;BME280;63122;52.424;13.458;2024-01-16T14:13:00;99952.22;;;-0.59;100.00
41945;BME280;63122;52.424;13.458;2024-01-16T14:14:57;99948.91;;;-0.61;100.00
41945;BME280;63122;52.424;13.458;2024-01-16T14:16:49;99941.97;;;-0.61;100.00
41945;BME280;63122;52.424;13.458;2024-01-16T14:18:53;99939.38;;;-0.61;100.00
41945;BME280;63122;52.424;13.458;2024-01-16T14:20:45;99940.91;;;-0.58;100.00
41945;BME280;63122;52.424;13.458;2024-01-16T14:22:42;99942.50;;;-0.55;100.00
41945;BME280;63122;52.424;13.458;2024-01-16T14:24:35;99938.06;;;-0.53;100.00
41945;BME280;63122;52.424;13.458;2024-01-16T14:26:33;99939.72;;;-0.52;100.00
41945;BME280;63122;52.424;13.458;2024-01-16T14:28:26;99937.03;;;-0.51;100.00
41945;BME280;63122;52.424;13.458;2024-01-16T14:30:22;99939.63;;;-0.51;100.00
41945;BME280;63122;52.424;13.458;2024-01-16T14:32:14;99937.03;;;-0.51;100.00
41945;BME280;63122;52.424;13.458;2024-01-16T14:34:10;99944.69;;;-0.49;100.00
41945;BME280;63122;52.424;13.458;2024-01-16T14:36:06;99944.59;;;-0.48;100.00
41945;BME280;63122;52.424;13.458;2024-01-16T14:38:02;99944.69;;;-0.49;100.00
41945;BME280;63122;52.424;13.458;2024-01-16T14:39:58;99948.22;;;-0.50;100.00
41945;BME280;63122;52.424;13.458;2024-01-16T14:41:59;99953.31;;;-0.49;100.00
41945;BME280;63122;52.424;13.458;2024-01-16T14:43:55;99949.88;;;-0.49;100.00
41945;BME280;63122;52.424;13.458;2024-01-16T14:45:50;99956.91;;;-0.51;100.00
41945;BME280;63122;52.424;13.458;2024-01-16T14:47:45;99940.63;;;-0.53;100.00
41945;BME280;63122;52.424;13.458;2024-01-16T14:49:42;99942.41;;;-0.54;100.00
41945;BME280;63122;52.424;13.458;2024-01-16T14:51:37;99952.78;;;-0.54;100.00
41945;BME280;63122;52.424;13.458;2024-01-16T14:53:30;99947.47;;;-0.52;100.00
41945;BME280;63122;52.424;13.458;2024-01-16T14:55:26;99942.41;;;-0.54;100.00
41945;BME280;63122;52.424;13.458;2024-01-16T14:57:25;99939.06;;;-0.56;100.00
41945;BME280;63122;52.424;13.458;2024-01-16T14:59:22;99943.63;;;-0.60;100.00
41945;BME280;63122;52.424;13.458;2024-01-16T15:01:17;99950.75;;;-0.63;100.00
41945;BME280;63122;52.424;13.458;2024-01-16T15:03:13;99961.13;;;-0.63;100.00
41945;BME280;63122;52.424;13.458;2024-01-16T15:05:11;99963.38;;;-0.71;100.00
41945;BME280;63122;52.424;13.458;2024-01-16T15:07:07;99968.19;;;-0.80;100.00
41945;BME280;63122;52.424;13.458;2024-01-16T15:09:03;99971.44;;;-0.91;100.00
41945;BME280;63122;52.424;13.458;2024-01-16T15:10:58;99967.56;;;-0.98;100.00
41945;BME280;63122;52.424;13.458;2024-01-16T15:12:57;99970.53;;;-1.04;100.00
41945;BME280;63122;52.424;13.458;2024-01-16T15:14:52;99965.66;;;-1.09;100.00
41945;BME280;63122;52.424;13.458;2024-01-16T15:16:45;99960.56;;;-1.10;100.00
41945;BME280;63122;52.424;13.458;2024-01-16T15:18:40;99964.81;;;-1.09;100.00
41945;BME280;63122;52.424;13.458;2024-01-16T15:20:34;99967.38;;;-1.09;100.00
41945;BME280;63122;52.424;13.458;2024-01-16T15:22:29;99963.88;;;-1.08;100.00
41945;BME280;63122;52.424;13.458;2024-01-16T15:24:22;99968.31;;;-1.10;100.00
41945;BME280;63122;52.424;13.458;2024-01-16T15:26:25;99969.25;;;-1.11;100.00
41945;BME280;63122;52.424;13.458;2024-01-16T15:28:48;99969.31;;;-1.13;100.00
41945;BME280;63122;52.424;13.458;2024-01-16T15:30:47;99969.97;;;-1.09;100.00
41945;BME280;63122;52.424;13.458;2024-01-16T15:32:43;99983.66;;;-1.07;100.00
41945;BME280;63122;52.424;13.458;2024-01-16T15:34:40;99980.34;;;-1.09;100.00
41945;BME280;63122;52.424;13.458;2024-01-16T15:37:55;99979.53;;;-1.10;100.00
41945;BME280;63122;52.424;13.458;2024-01-16T15:40:37;99979.41;;;-1.08;100.00
41945;BME280;63122;52.424;13.458;2024-01-16T15:43:29;99982.84;;;-1.08;100.00
41945;BME280;63122;52.424;13.458;2024-01-16T15:45:45;99982.75;;;-1.06;100.00
41945;BME280;63122;52.424;13.458;2024-01-16T15:48:06;99986.06;;;-1.04;100.00
41945;BME280;63122;52.424;13.458;2024-01-16T15:55:53;100005.56;;;-0.98;100.00
41945;BME280;63122;52.424;13.458;2024-01-16T16:00:52;100000.84;;;-1.06;100.00
41945;BME280;63122;52.424;13.458;2024-01-16T16:02:56;100007.81;;;-1.07;100.00
41945;BME280;63122;52.424;13.458;2024-01-16T16:05:17;100004.38;;;-1.07;100.00
41945;BME280;63122;52.424;13.458;2024-01-16T16:07:25;100003.44;;;-1.06;100.00
41945;BME280;63122;52.424;13.458;2024-01-16T16:09:20;100004.28;;;-1.06;100.00
41945;BME280;63122;52.424;13.458;2024-01-16T16:11:34;100002.44;;;-1.04;100.00
41945;BME280;63122;52.424;13.458;2024-01-16T16:13:42;100007.69;;;-1.05;100.00
41945;BME280;63122;52.424;13.458;2024-01-16T16:15:39;100009.47;;;-1.06;100.00
41945;BME280;63122;52.424;13.458;2024-01-16T16:17:38;100011.88;;;-1.03;100.00
41945;BME280;63122;52.424;13.458;2024-01-16T16:19:34;100007.44;;;-1.00;100.00
41945;BME280;63122;52.424;13.458;2024-01-16T16:21:31;100014.16;;;-0.98;100.00
41945;BME280;63122;52.424;13.458;2024-01-16T16:23:29;100008.72;;;-0.93;100.00
41945;BME280;63122;52.424;13.458;2024-01-16T16:25:26;100008.81;;;-0.95;100.00
41945;BME280;63122;52.424;13.458;2024-01-16T16:27:24;100012.97;;;-0.92;100.00
41945;BME280;63122;52.424;13.458;2024-01-16T16:29:21;100003.47;;;-0.92;100.00
41945;BME280;63122;52.424;13.458;2024-01-16T16:31:17;100007.16;;;-0.96;100.00
41945;BME280;63122;52.424;13.458;2024-01-16T16:33:12;100008.91;;;-0.96;100.00
41945;BME280;63122;52.424;13.458;2024-01-16T16:35:09;100007.16;;;-0.96;100.00
41945;BME280;63122;52.424;13.458;2024-01-16T16:37:06;100007.16;;;-0.96;100.00
41945;BME280;63122;52.424;13.458;2024-01-16T16:39:15;100009.66;;;-0.94;100.00
41945;BME280;63122;52.424;13.458;2024-01-16T16:41:19;100014.81;;;-0.94;100.00
41945;BME280;63122;52.424;13.458;2024-01-16T16:43:34;100019.63;;;-0.88;100.00
41945;BME280;63122;52.424;13.458;2024-01-16T16:47:10;100025.53;;;-0.86;100.00
41945;BME280;63122;52.424;13.458;2024-01-16T16:53:58;100029.91;;;-0.87;100.00
41945;BME280;63122;52.424;13.458;2024-01-16T16:55:58;100032.38;;;-0.85;100.00
41945;BME280;63122;52.424;13.458;2024-01-16T16:57:56;100026.28;;;-0.84;100.00
41945;BME280;63122;52.424;13.458;2024-01-16T17:00:27;100025.38;;;-0.83;100.00
41945;BME280;63122;52.424;13.458;2024-01-16T17:02:24;100016.75;;;-0.83;100.00
41945;BME280;63122;52.424;13.458;2024-01-16T17:04:21;100020.28;;;-0.84;100.00
41945;BME280;63122;52.424;13.458;2024-01-16T17:06:18;100020.47;;;-0.88;100.00
41945;BME280;63122;52.424;13.458;2024-01-16T17:08:16;100023.06;;;-0.88;100.00
41945;BME280;63122;52.424;13.458;2024-01-16T17:10:15;100015.28;;;-0.88;100.00
41945;BME280;63122;52.424;13.458;2024-01-16T17:12:15;100018.81;;;-0.89;100.00
41945;BME280;63122;52.424;13.458;2024-01-16T17:14:13;100022.22;;;-0.88;100.00
41945;BME280;63122;52.424;13.458;2024-01-16T17:16:15;100025.66;;;-0.88;100.00
41945;BME280;63122;52.424;13.458;2024-01-16T17:18:33;100015.91;;;-0.84;100.00
41945;BME280;63122;52.424;13.458;2024-01-16T17:21:08;100011.56;;;-0.83;100.00
41945;BME280;63122;52.424;13.458;2024-01-16T17:24:04;100019.44;;;-0.85;100.00
41945;BME280;63122;52.424;13.458;2024-01-16T17:26:45;100017.75;;;-0.86;100.00